createdAt,value
2023-03-31T00:00:15.975Z,88165.00
2023-03-31T00:01:15.948Z,88165.00
2023-03-31T00:02:15.953Z,88165.00
2023-03-31T00:03:16.003Z,88169.00
2023-03-31T00:04:16.093Z,88165.00
2023-03-31T00:05:15.927Z,88163.00
2023-03-31T00:06:15.928Z,88165.00
2023-03-31T00:07:15.912Z,88171.00
2023-03-31T00:08:15.891Z,88173.00
2023-03-31T00:09:15.894Z,88173.00
2023-03-31T00:10:18.578Z,88175.00
2023-03-31T00:11:15.847Z,88175.00
2023-03-31T00:12:15.847Z,88179.00
2023-03-31T00:13:15.814Z,88175.00
2023-03-31T00:14:15.887Z,88175.00
2023-03-31T00:15:15.788Z,88173.00
2023-03-31T00:16:15.837Z,88169.00
2023-03-31T00:17:15.772Z,88165.00
2023-03-31T00:18:15.759Z,88153.00
2023-03-31T00:19:15.731Z,88153.00
2023-03-31T00:20:15.721Z,88145.00
2023-03-31T00:21:15.691Z,88139.00
2023-03-31T00:22:15.700Z,88137.00
2023-03-31T00:23:15.669Z,88139.00
2023-03-31T00:24:15.662Z,88141.00
2023-03-31T00:25:15.690Z,88135.00
2023-03-31T00:26:15.688Z,88125.00
2023-03-31T00:27:15.620Z,88125.00
2023-03-31T00:28:15.650Z,88127.00
2023-03-31T00:29:15.623Z,88122.00
2023-03-31T00:30:15.590Z,88120.00
2023-03-31T00:31:15.593Z,88124.00
2023-03-31T00:32:15.560Z,88124.00
2023-03-31T00:33:15.581Z,88120.00
2023-03-31T00:34:15.573Z,88118.00
2023-03-31T00:35:15.595Z,88118.00
2023-03-31T00:36:15.584Z,88118.00
2023-03-31T00:37:15.498Z,88112.00
2023-03-31T00:38:15.494Z,88114.00
2023-03-31T00:39:15.461Z,88110.00
2023-03-31T00:40:15.468Z,88108.00
2023-03-31T00:41:15.434Z,88108.00
2023-03-31T00:42:15.445Z,88110.00
2023-03-31T00:43:15.409Z,88104.00
2023-03-31T00:44:15.405Z,88106.00
2023-03-31T00:45:15.447Z,88098.00
2023-03-31T00:46:15.621Z,88104.00
2023-03-31T00:47:15.389Z,88104.00
2023-03-31T00:48:15.340Z,88104.00
2023-03-31T00:49:15.315Z,88102.00
2023-03-31T00:50:15.309Z,88098.00
2023-03-31T00:51:15.274Z,88098.00
2023-03-31T00:52:15.265Z,88100.00
2023-03-31T00:53:15.276Z,88096.00
2023-03-31T00:54:15.229Z,88096.00
2023-03-31T00:55:15.215Z,88100.00
2023-03-31T00:56:15.217Z,88096.00
2023-03-31T00:57:15.252Z,88092.00
2023-03-31T00:58:15.184Z,88090.00
2023-03-31T00:59:15.152Z,88080.00
2023-03-31T01:00:15.143Z,88082.00
2023-03-31T01:01:15.129Z,88075.00
2023-03-31T01:02:15.100Z,88073.00
2023-03-31T01:03:15.160Z,88084.00
2023-03-31T01:04:15.075Z,88078.00
2023-03-31T01:05:15.077Z,88075.00
2023-03-31T01:06:15.053Z,88075.00
2023-03-31T01:07:15.038Z,88078.00
2023-03-31T01:08:15.046Z,88078.00
2023-03-31T01:09:15.006Z,88077.00
2023-03-31T01:10:15.004Z,88077.00
2023-03-31T01:11:14.993Z,88077.00
2023-03-31T01:12:14.965Z,88077.00
2023-03-31T01:13:14.965Z,88071.00
2023-03-31T01:14:14.934Z,88063.00
2023-03-31T01:15:14.937Z,88063.00
2023-03-31T01:16:14.957Z,88057.00
2023-03-31T01:17:14.936Z,88055.00
2023-03-31T01:18:14.935Z,88051.00
2023-03-31T01:19:14.871Z,88053.00
2023-03-31T01:20:14.880Z,88055.00
2023-03-31T01:21:14.854Z,88053.00
2023-03-31T01:22:14.845Z,88053.00
2023-03-31T01:23:14.842Z,88053.00
2023-03-31T01:24:14.820Z,88053.00
2023-03-31T01:25:14.821Z,88053.00
2023-03-31T01:26:14.789Z,88053.00
2023-03-31T01:27:14.785Z,88051.00
2023-03-31T01:28:14.808Z,88049.00
2023-03-31T01:29:14.756Z,88051.00
2023-03-31T01:30:14.766Z,88047.00
2023-03-31T01:31:14.780Z,88045.00
2023-03-31T01:32:14.743Z,88043.00
2023-03-31T01:33:14.733Z,88045.00
2023-03-31T01:34:14.749Z,88045.00
2023-03-31T01:35:14.728Z,88043.00
2023-03-31T01:36:14.735Z,88043.00
2023-03-31T01:37:14.697Z,88039.00
2023-03-31T01:38:14.688Z,88039.00
2023-03-31T01:39:14.660Z,88039.00
2023-03-31T01:40:14.659Z,88041.00
2023-03-31T01:41:14.666Z,88041.00
2023-03-31T01:42:14.646Z,88043.00
2023-03-31T01:43:14.625Z,88035.00
2023-03-31T01:44:14.637Z,88029.00
2023-03-31T01:45:14.656Z,88027.00
2023-03-31T01:46:14.649Z,88023.00
2023-03-31T01:47:14.605Z,88022.00
2023-03-31T01:48:14.597Z,88022.00
2023-03-31T01:49:14.604Z,88018.00
2023-03-31T01:50:14.586Z,88018.00
2023-03-31T01:51:14.598Z,88016.00
2023-03-31T01:52:14.599Z,88020.00
2023-03-31T01:53:14.584Z,88020.00
2023-03-31T01:54:14.580Z,88018.00
2023-03-31T01:55:14.576Z,88023.00
2023-03-31T01:56:14.579Z,88022.00
2023-03-31T01:57:14.552Z,88022.00
2023-03-31T01:58:14.564Z,88025.00
2023-03-31T01:59:14.535Z,88027.00
2023-03-31T02:00:14.541Z,88029.00
2023-03-31T02:01:14.556Z,88027.00
2023-03-31T02:02:14.564Z,88023.00
2023-03-31T02:03:14.587Z,88022.00
2023-03-31T02:04:14.484Z,88022.00
2023-03-31T02:05:14.492Z,88018.00
2023-03-31T02:06:14.454Z,88020.00
2023-03-31T02:07:14.428Z,88020.00
2023-03-31T02:08:14.412Z,88022.00
2023-03-31T02:09:14.560Z,88022.00
2023-03-31T02:10:14.393Z,88023.00
2023-03-31T02:11:14.385Z,88018.00
2023-03-31T02:12:14.352Z,88016.00
2023-03-31T02:13:14.341Z,88018.00
2023-03-31T02:14:14.328Z,88014.00
2023-03-31T02:15:14.330Z,88016.00
2023-03-31T02:16:14.389Z,88016.00
2023-03-31T02:17:14.290Z,88014.00
2023-03-31T02:18:14.292Z,88012.00
2023-03-31T02:19:14.270Z,88010.00
2023-03-31T02:20:14.257Z,88010.00
2023-03-31T02:21:14.242Z,88002.00
2023-03-31T02:22:14.282Z,88006.00
2023-03-31T02:23:14.234Z,88006.00
2023-03-31T02:24:14.199Z,88002.00
2023-03-31T02:25:14.233Z,88000.00
2023-03-31T02:26:14.227Z,88002.00
2023-03-31T02:27:14.199Z,88000.00
2023-03-31T02:28:14.183Z,87996.00
2023-03-31T02:29:14.183Z,87992.00
2023-03-31T02:30:14.190Z,87990.00
2023-03-31T02:31:14.288Z,87990.00
2023-03-31T02:32:14.194Z,87982.00
2023-03-31T02:33:14.180Z,87982.00
2023-03-31T02:34:14.185Z,87980.00
2023-03-31T02:35:14.207Z,87972.00
2023-03-31T02:36:14.276Z,87976.00
2023-03-31T02:37:14.190Z,87968.00
2023-03-31T02:38:14.168Z,87965.00
2023-03-31T02:39:14.191Z,87965.00
2023-03-31T02:40:14.170Z,87952.00
2023-03-31T02:41:14.179Z,87954.00
2023-03-31T02:42:14.173Z,87963.00
2023-03-31T02:43:14.176Z,87954.00
2023-03-31T02:44:14.176Z,87954.00
2023-03-31T02:45:14.173Z,87952.00
2023-03-31T02:46:14.191Z,87961.00
2023-03-31T02:47:14.180Z,87954.00
2023-03-31T02:48:14.188Z,87963.00
2023-03-31T02:49:14.180Z,87950.00
2023-03-31T02:50:14.187Z,87961.00
2023-03-31T02:51:14.191Z,87967.00
2023-03-31T02:52:14.199Z,87965.00
2023-03-31T02:53:14.232Z,87970.00
2023-03-31T02:54:14.196Z,87968.00
2023-03-31T02:55:14.196Z,87972.00
2023-03-31T02:56:14.205Z,87978.00
2023-03-31T02:57:14.246Z,87972.00
2023-03-31T02:58:14.200Z,87961.00
2023-03-31T02:59:14.198Z,87952.00
2023-03-31T03:00:14.218Z,87963.00
2023-03-31T03:01:14.246Z,87952.00
2023-03-31T03:02:14.232Z,87950.00
2023-03-31T03:03:14.455Z,87948.00
2023-03-31T03:04:14.216Z,87944.00
2023-03-31T03:05:14.227Z,87950.00
2023-03-31T03:06:14.250Z,87946.00
2023-03-31T03:07:14.235Z,87942.00
2023-03-31T03:08:14.254Z,87936.00
2023-03-31T03:09:14.210Z,87936.00
2023-03-31T03:10:14.195Z,87932.00
2023-03-31T03:11:14.189Z,87930.00
2023-03-31T03:12:14.180Z,87934.00
2023-03-31T03:13:14.169Z,87936.00
2023-03-31T03:14:14.158Z,87936.00
2023-03-31T03:15:14.152Z,87926.00
2023-03-31T03:16:14.220Z,87928.00
2023-03-31T03:17:14.118Z,87924.00
2023-03-31T03:18:14.155Z,87926.00
2023-03-31T03:19:14.094Z,87922.00
2023-03-31T03:20:14.093Z,87926.00
2023-03-31T03:21:14.071Z,87916.00
2023-03-31T03:22:14.097Z,87920.00
2023-03-31T03:23:14.040Z,87918.00
2023-03-31T03:24:14.033Z,87926.00
2023-03-31T03:25:14.027Z,87916.00
2023-03-31T03:26:13.997Z,87920.00
2023-03-31T03:27:14.007Z,87916.00
2023-03-31T03:28:13.966Z,87912.00
2023-03-31T03:29:13.951Z,87914.00
2023-03-31T03:30:13.940Z,87912.00
2023-03-31T03:31:13.964Z,87908.00
2023-03-31T03:32:13.905Z,87903.00
2023-03-31T03:33:15.897Z,87905.00
2023-03-31T03:34:13.877Z,87897.00
2023-03-31T03:35:13.846Z,87908.00
2023-03-31T03:36:13.921Z,87901.00
2023-03-31T03:37:13.819Z,87901.00
2023-03-31T03:38:13.807Z,87887.00
2023-03-31T03:39:13.796Z,87887.00
2023-03-31T03:40:13.751Z,87871.00
2023-03-31T03:41:13.754Z,87881.00
2023-03-31T03:42:13.726Z,87871.00
2023-03-31T03:43:13.710Z,87865.00
2023-03-31T03:44:13.690Z,87861.00
2023-03-31T03:45:13.709Z,87859.00
2023-03-31T03:46:13.703Z,87857.00
2023-03-31T03:47:13.663Z,87855.00
2023-03-31T03:48:13.626Z,87859.00
2023-03-31T03:49:13.620Z,87855.00
2023-03-31T03:50:15.927Z,87855.00
2023-03-31T03:51:13.580Z,87853.00
2023-03-31T03:52:13.571Z,87846.00
2023-03-31T03:53:13.543Z,87840.00
2023-03-31T03:54:13.529Z,87838.00
2023-03-31T03:55:13.498Z,87832.00
2023-03-31T03:56:13.496Z,87828.00
2023-03-31T03:57:13.500Z,87834.00
2023-03-31T03:58:13.474Z,87836.00
2023-03-31T03:59:13.433Z,87840.00
2023-03-31T04:00:13.416Z,87846.00
2023-03-31T04:01:13.405Z,87850.00
2023-03-31T04:02:13.387Z,87846.00
2023-03-31T04:03:13.510Z,87846.00
2023-03-31T04:04:13.341Z,87840.00
2023-03-31T04:05:13.381Z,87844.00
2023-03-31T04:06:13.312Z,87836.00
2023-03-31T04:07:13.289Z,87830.00
2023-03-31T04:08:13.259Z,87830.00
2023-03-31T04:09:13.247Z,87830.00
2023-03-31T04:10:13.233Z,87834.00
2023-03-31T04:11:13.222Z,87824.00
2023-03-31T04:12:13.186Z,87820.00
2023-03-31T04:13:13.160Z,87826.00
2023-03-31T04:14:13.147Z,87820.00
2023-03-31T04:15:13.149Z,87818.00
2023-03-31T04:16:13.180Z,87810.00
2023-03-31T04:17:13.122Z,87812.00
2023-03-31T04:18:15.057Z,87798.00
2023-03-31T04:19:13.060Z,87802.00
2023-03-31T04:20:13.036Z,87808.00
2023-03-31T04:21:13.036Z,87808.00
2023-03-31T04:22:13.004Z,87820.00
2023-03-31T04:23:12.988Z,87826.00
2023-03-31T04:24:12.962Z,87830.00
2023-03-31T04:25:12.943Z,87824.00
2023-03-31T04:26:12.943Z,87826.00
2023-03-31T04:27:12.914Z,87818.00
2023-03-31T04:28:12.897Z,87816.00
2023-03-31T04:29:12.969Z,87814.00
2023-03-31T04:30:12.836Z,87818.00
2023-03-31T04:31:12.827Z,87816.00
2023-03-31T04:32:12.850Z,87820.00
2023-03-31T04:33:12.784Z,87816.00
2023-03-31T04:34:12.748Z,87822.00
2023-03-31T04:35:12.753Z,87828.00
2023-03-31T04:36:12.732Z,87830.00
2023-03-31T04:37:12.684Z,87828.00
2023-03-31T04:38:12.667Z,87828.00
2023-03-31T04:39:12.653Z,87830.00
2023-03-31T04:40:12.621Z,87832.00
2023-03-31T04:41:12.621Z,87840.00
2023-03-31T04:42:12.602Z,87842.00
2023-03-31T04:43:12.577Z,87842.00
2023-03-31T04:44:12.551Z,87842.00
2023-03-31T04:45:12.528Z,87838.00
2023-03-31T04:46:12.593Z,87834.00
2023-03-31T04:47:12.508Z,87834.00
2023-03-31T04:48:12.492Z,87842.00
2023-03-31T04:49:12.477Z,87836.00
2023-03-31T04:50:16.225Z,87834.00
2023-03-31T04:51:12.433Z,87836.00
2023-03-31T04:52:12.432Z,87832.00
2023-03-31T04:53:12.408Z,87830.00
2023-03-31T04:54:12.398Z,87828.00
2023-03-31T04:55:12.372Z,87818.00
2023-03-31T04:56:12.365Z,87824.00
2023-03-31T04:57:12.407Z,87826.00
2023-03-31T04:58:12.339Z,87826.00
2023-03-31T04:59:12.322Z,87824.00
2023-03-31T05:00:12.310Z,87826.00
2023-03-31T05:01:12.336Z,87816.00
2023-03-31T05:02:12.348Z,87808.00
2023-03-31T05:03:12.401Z,87804.00
2023-03-31T05:04:12.247Z,87797.00
2023-03-31T05:05:12.230Z,87797.00
2023-03-31T05:06:12.218Z,87785.00
2023-03-31T05:07:12.210Z,87783.00
2023-03-31T05:08:12.193Z,87791.00
2023-03-31T05:09:12.192Z,87785.00
2023-03-31T05:10:12.158Z,87785.00
2023-03-31T05:11:12.147Z,87783.00
2023-03-31T05:12:12.132Z,87781.00
2023-03-31T05:13:12.110Z,87779.00
2023-03-31T05:14:12.085Z,87775.00
2023-03-31T05:15:12.068Z,87773.00
2023-03-31T05:16:12.134Z,87775.00
2023-03-31T05:17:12.035Z,87777.00
2023-03-31T05:18:12.043Z,87779.00
2023-03-31T05:19:12.005Z,87785.00
2023-03-31T05:20:11.977Z,87777.00
2023-03-31T05:21:11.975Z,87775.00
2023-03-31T05:22:11.944Z,87767.00
2023-03-31T05:23:11.942Z,87769.00
2023-03-31T05:24:11.908Z,87767.00
2023-03-31T05:25:11.955Z,87765.00
2023-03-31T05:26:11.899Z,87771.00
2023-03-31T05:27:11.864Z,87775.00
2023-03-31T05:28:11.829Z,87785.00
2023-03-31T05:29:11.825Z,87761.00
2023-03-31T05:30:11.802Z,87765.00
2023-03-31T05:31:11.799Z,87763.00
2023-03-31T05:32:11.826Z,87765.00
2023-03-31T05:33:11.725Z,87761.00
2023-03-31T05:34:11.749Z,87767.00
2023-03-31T05:35:11.717Z,87763.00
2023-03-31T05:36:11.759Z,87761.00
2023-03-31T05:37:11.667Z,87757.00
2023-03-31T05:38:11.638Z,87759.00
2023-03-31T05:39:11.635Z,87746.00
2023-03-31T05:40:11.613Z,87738.00
2023-03-31T05:41:11.592Z,87732.00
2023-03-31T05:42:11.565Z,87724.00
2023-03-31T05:43:11.576Z,87732.00
2023-03-31T05:44:11.641Z,87730.00
2023-03-31T05:45:11.511Z,87726.00
2023-03-31T05:46:11.859Z,87728.00
2023-03-31T05:47:11.487Z,87728.00
2023-03-31T05:48:11.474Z,87732.00
2023-03-31T05:49:11.456Z,87724.00
2023-03-31T05:50:13.311Z,87736.00
2023-03-31T05:51:11.399Z,87722.00
2023-03-31T05:52:11.387Z,87720.00
2023-03-31T05:53:12.110Z,87720.00
2023-03-31T05:54:11.376Z,87724.00
2023-03-31T05:55:11.326Z,87732.00
2023-03-31T05:56:11.295Z,87728.00
2023-03-31T05:57:11.260Z,87732.00
2023-03-31T05:58:11.218Z,87718.00
2023-03-31T05:59:11.303Z,87724.00
2023-03-31T06:00:11.221Z,87718.00
2023-03-31T06:01:11.678Z,87716.00
2023-03-31T06:02:11.324Z,87716.00
2023-03-31T06:03:11.372Z,87716.00
2023-03-31T06:04:11.418Z,87722.00
2023-03-31T06:05:11.464Z,87724.00
2023-03-31T06:06:11.404Z,87708.00
2023-03-31T06:07:12.159Z,87710.00
2023-03-31T06:08:11.447Z,87714.00
2023-03-31T06:09:11.510Z,87695.00
2023-03-31T06:10:11.520Z,87695.00
2023-03-31T06:11:11.517Z,87710.00
2023-03-31T06:12:11.516Z,87706.00
2023-03-31T06:13:11.623Z,87697.00
2023-03-31T06:14:11.589Z,87704.00
2023-03-31T06:15:11.622Z,87697.00
2023-03-31T06:16:11.611Z,87684.00
2023-03-31T06:17:11.632Z,87691.00
2023-03-31T06:18:11.785Z,87697.00
2023-03-31T06:19:11.670Z,87704.00
2023-03-31T06:20:26.535Z,87712.00
2023-03-31T06:21:12.549Z,87708.00
2023-03-31T06:22:11.477Z,87716.00
2023-03-31T06:23:11.538Z,87704.00
2023-03-31T06:24:11.435Z,87712.00
2023-03-31T06:25:11.631Z,87704.00
2023-03-31T06:26:11.399Z,87697.00
2023-03-31T06:27:11.453Z,87695.00
2023-03-31T06:28:11.335Z,87710.00
2023-03-31T06:29:11.567Z,87706.00
2023-03-31T06:30:11.310Z,87697.00
2023-03-31T06:31:11.322Z,87693.00
2023-03-31T06:32:11.334Z,87688.00
2023-03-31T06:33:11.259Z,87695.00
2023-03-31T06:34:11.204Z,87695.00
2023-03-31T06:35:11.150Z,87697.00
2023-03-31T06:36:11.165Z,87686.00
2023-03-31T06:37:11.135Z,87697.00
2023-03-31T06:38:11.109Z,87693.00
2023-03-31T06:39:11.052Z,87691.00
2023-03-31T06:40:11.026Z,87697.00
2023-03-31T06:41:11.009Z,87693.00
2023-03-31T06:42:10.984Z,87691.00
2023-03-31T06:43:11.193Z,87693.00
2023-03-31T06:44:10.936Z,87684.00
2023-03-31T06:45:10.896Z,87693.00
2023-03-31T06:46:11.146Z,87688.00
2023-03-31T06:47:10.924Z,87688.00
2023-03-31T06:48:10.894Z,87688.00
2023-03-31T06:49:10.853Z,87676.00
2023-03-31T06:50:10.804Z,87672.00
2023-03-31T06:51:10.801Z,87678.00
2023-03-31T06:52:10.771Z,87678.00
2023-03-31T06:53:10.784Z,87676.00
2023-03-31T06:54:10.716Z,87678.00
2023-03-31T06:55:10.732Z,87678.00
2023-03-31T06:56:10.732Z,87676.00
2023-03-31T06:57:10.775Z,87672.00
2023-03-31T06:58:10.664Z,87674.00
2023-03-31T06:59:10.600Z,87678.00
2023-03-31T07:00:10.591Z,87680.00
2023-03-31T07:01:10.795Z,87680.00
2023-03-31T07:02:10.581Z,87678.00
2023-03-31T07:03:10.635Z,87680.00
2023-03-31T07:04:10.510Z,87686.00
2023-03-31T07:05:10.600Z,87690.00
2023-03-31T07:06:11.450Z,87691.00
2023-03-31T07:07:10.443Z,87690.00
2023-03-31T07:08:10.434Z,87691.00
2023-03-31T07:09:10.389Z,87691.00
2023-03-31T07:10:10.448Z,87682.00
2023-03-31T07:11:10.768Z,87678.00
2023-03-31T07:12:10.313Z,87678.00
2023-03-31T07:13:10.304Z,87666.00
2023-03-31T07:14:10.304Z,87678.00
2023-03-31T07:15:10.270Z,87678.00
2023-03-31T07:16:10.321Z,87682.00
2023-03-31T07:17:10.201Z,87680.00
2023-03-31T07:18:10.277Z,87666.00
2023-03-31T07:19:10.151Z,87678.00
2023-03-31T07:20:10.221Z,87676.00
2023-03-31T07:21:10.669Z,87668.00
2023-03-31T07:22:10.195Z,87670.00
2023-03-31T07:23:10.213Z,87672.00
2023-03-31T07:24:10.683Z,87672.00
2023-03-31T07:25:10.265Z,87682.00
2023-03-31T07:26:10.308Z,87672.00
2023-03-31T07:27:10.322Z,87670.00
2023-03-31T07:28:10.373Z,87676.00
2023-03-31T07:29:10.381Z,87676.00
2023-03-31T07:30:10.406Z,87660.00
2023-03-31T07:31:10.431Z,87654.00
2023-03-31T07:32:10.604Z,87650.00
2023-03-31T07:33:10.550Z,87654.00
2023-03-31T07:34:10.505Z,87664.00
2023-03-31T07:35:10.523Z,87648.00
2023-03-31T07:36:13.184Z,87648.00
2023-03-31T07:37:10.562Z,87652.00
2023-03-31T07:38:10.559Z,87640.00
2023-03-31T07:39:10.511Z,87640.00
2023-03-31T07:40:10.488Z,87642.00
2023-03-31T07:41:10.465Z,87644.00
2023-03-31T07:42:10.503Z,87652.00
2023-03-31T07:43:10.432Z,87654.00
2023-03-31T07:44:10.437Z,87650.00
2023-03-31T07:45:10.403Z,87658.00
2023-03-31T07:46:10.844Z,87650.00
2023-03-31T07:47:10.373Z,87648.00
2023-03-31T07:48:10.367Z,87642.00
2023-03-31T07:49:10.327Z,87633.00
2023-03-31T07:50:10.308Z,87635.00
2023-03-31T07:51:10.290Z,87636.00
2023-03-31T07:52:10.338Z,87633.00
2023-03-31T07:53:10.260Z,87635.00
2023-03-31T07:54:10.263Z,87629.00
2023-03-31T07:55:10.251Z,87625.00
2023-03-31T07:56:10.235Z,87638.00
2023-03-31T07:57:10.245Z,87648.00
2023-03-31T07:58:10.212Z,87650.00
2023-03-31T07:59:10.237Z,87652.00
2023-03-31T08:00:10.171Z,87650.00
2023-03-31T08:01:10.152Z,87640.00
2023-03-31T08:02:10.223Z,87644.00
2023-03-31T08:03:10.157Z,87640.00
2023-03-31T08:05:10.095Z,87640.00
2023-03-31T08:06:10.263Z,87638.00
2023-03-31T08:07:10.065Z,87627.00
2023-03-31T08:08:10.067Z,87644.00
2023-03-31T08:09:10.031Z,87642.00
2023-03-31T08:10:10.015Z,87658.00
2023-03-31T08:11:09.988Z,87638.00
2023-03-31T08:12:09.990Z,87646.00
2023-03-31T08:13:10.110Z,87640.00
2023-03-31T08:14:10.243Z,87640.00
2023-03-31T08:15:10.075Z,87638.00
2023-03-31T08:16:10.653Z,87640.00
2023-03-31T08:17:10.144Z,87640.00
2023-03-31T08:18:10.217Z,87638.00
2023-03-31T08:19:10.221Z,87640.00
2023-03-31T08:20:10.579Z,87635.00
2023-03-31T08:21:10.304Z,87636.00
2023-03-31T08:22:10.347Z,87638.00
2023-03-31T08:23:10.388Z,87631.00
2023-03-31T08:24:10.522Z,87625.00
2023-03-31T08:25:10.471Z,87625.00
2023-03-31T08:26:10.503Z,87629.00
2023-03-31T08:27:12.237Z,87631.00
2023-03-31T08:28:10.615Z,87631.00
2023-03-31T08:29:10.628Z,87629.00
2023-03-31T08:30:10.678Z,87623.00
2023-03-31T08:31:10.765Z,87621.00
2023-03-31T08:32:10.756Z,87615.00
2023-03-31T08:33:10.796Z,87619.00
2023-03-31T08:34:11.213Z,87615.00
2023-03-31T08:35:10.867Z,87619.00
2023-03-31T08:36:11.168Z,87603.00
2023-03-31T08:37:10.966Z,87613.00
2023-03-31T08:38:10.986Z,87611.00
2023-03-31T08:39:11.033Z,87607.00
2023-03-31T08:40:11.093Z,87611.00
2023-03-31T08:41:11.103Z,87603.00
2023-03-31T08:42:13.861Z,87593.00
2023-03-31T08:43:11.192Z,87597.00
2023-03-31T08:44:11.273Z,87597.00
2023-03-31T08:45:11.132Z,87609.00
2023-03-31T08:46:11.312Z,87603.00
2023-03-31T08:47:11.117Z,87599.00
2023-03-31T08:48:11.157Z,87595.00
2023-03-31T08:49:11.049Z,87597.00
2023-03-31T08:50:11.218Z,87599.00
2023-03-31T08:51:11.069Z,87585.00
2023-03-31T08:52:11.045Z,87589.00
2023-03-31T08:53:10.955Z,87587.00
2023-03-31T08:54:13.153Z,87583.00
2023-03-31T08:55:10.936Z,87583.00
2023-03-31T08:56:10.993Z,87583.00
2023-03-31T08:57:10.913Z,87574.00
2023-03-31T08:58:10.857Z,87574.00
2023-03-31T08:59:10.832Z,87574.00
2023-03-31T09:00:10.849Z,87566.00
2023-03-31T09:01:10.858Z,87574.00
2023-03-31T09:02:10.853Z,87562.00
2023-03-31T09:03:11.808Z,87550.00
2023-03-31T09:04:12.515Z,87546.00
2023-03-31T09:05:10.783Z,87544.00
2023-03-31T09:06:10.693Z,87542.00
2023-03-31T09:07:10.713Z,87530.00
2023-03-31T09:08:10.746Z,87538.00
2023-03-31T09:09:10.706Z,87530.00
2023-03-31T09:10:10.733Z,87532.00
2023-03-31T09:11:10.752Z,87534.00
2023-03-31T09:12:10.846Z,87532.00
2023-03-31T09:13:10.861Z,87534.00
2023-03-31T09:14:10.901Z,87534.00
2023-03-31T09:15:10.925Z,87542.00
2023-03-31T09:16:12.297Z,87552.00
2023-03-31T09:17:11.096Z,87556.00
2023-03-31T09:18:11.123Z,87540.00
2023-03-31T09:19:11.131Z,87540.00
2023-03-31T09:20:11.099Z,87528.00
2023-03-31T09:21:11.070Z,87536.00
2023-03-31T09:22:11.046Z,87536.00
2023-03-31T09:23:11.033Z,87523.00
2023-03-31T09:24:11.025Z,87519.00
2023-03-31T09:25:10.982Z,87519.00
2023-03-31T09:26:10.965Z,87517.00
2023-03-31T09:27:10.940Z,87513.00
2023-03-31T09:28:10.915Z,87517.00
2023-03-31T09:29:10.969Z,87513.00
2023-03-31T09:30:11.102Z,87528.00
2023-03-31T09:31:11.062Z,87519.00
2023-03-31T09:32:11.027Z,87525.00
2023-03-31T09:33:11.135Z,87517.00
2023-03-31T09:34:11.141Z,87515.00
2023-03-31T09:35:11.320Z,87511.00
2023-03-31T09:36:11.271Z,87521.00
2023-03-31T09:37:11.225Z,87517.00
2023-03-31T09:38:11.270Z,87515.00
2023-03-31T09:39:11.299Z,87517.00
2023-03-31T09:40:11.335Z,87521.00
2023-03-31T09:41:11.371Z,87505.00
2023-03-31T09:42:12.228Z,87503.00
2023-03-31T09:43:11.453Z,87503.00
2023-03-31T09:44:11.436Z,87499.00
2023-03-31T09:45:11.546Z,87507.00
2023-03-31T09:46:11.513Z,87511.00
2023-03-31T09:47:11.736Z,87501.00
2023-03-31T09:48:11.625Z,87497.00
2023-03-31T09:49:11.577Z,87487.00
2023-03-31T09:50:11.628Z,87485.00
2023-03-31T09:51:11.617Z,87497.00
2023-03-31T09:52:13.678Z,87497.00
2023-03-31T09:53:11.617Z,87493.00
2023-03-31T09:54:11.600Z,87497.00
2023-03-31T09:55:11.642Z,87491.00
2023-03-31T09:56:11.627Z,87483.00
2023-03-31T09:57:11.591Z,87481.00
2023-03-31T09:58:11.529Z,87493.00
2023-03-31T09:59:11.492Z,87493.00
2023-03-31T10:00:11.473Z,87483.00
2023-03-31T10:01:11.617Z,87485.00
2023-03-31T10:02:11.442Z,87497.00
2023-03-31T10:03:11.435Z,87479.00
2023-03-31T10:04:12.381Z,87483.00
2023-03-31T10:05:11.435Z,87485.00
2023-03-31T10:06:11.505Z,87491.00
2023-03-31T10:07:11.495Z,87483.00
2023-03-31T10:08:11.475Z,87479.00
2023-03-31T10:09:11.528Z,87481.00
2023-03-31T10:10:13.287Z,87483.00
2023-03-31T10:11:11.543Z,87475.00
2023-03-31T10:12:11.495Z,87470.00
2023-03-31T10:13:11.483Z,87472.00
2023-03-31T10:14:11.464Z,87474.00
2023-03-31T10:15:11.471Z,87468.00
2023-03-31T10:16:11.451Z,87474.00
2023-03-31T10:17:11.418Z,87472.00
2023-03-31T10:18:11.459Z,87468.00
2023-03-31T10:19:11.390Z,87466.00
2023-03-31T10:20:11.354Z,87475.00
2023-03-31T10:21:11.322Z,87466.00
2023-03-31T10:22:11.987Z,87466.00
2023-03-31T10:23:11.285Z,87468.00
2023-03-31T10:24:11.272Z,87470.00
2023-03-31T10:25:11.259Z,87468.00
2023-03-31T10:26:11.200Z,87468.00
2023-03-31T10:27:11.206Z,87460.00
2023-03-31T10:28:11.195Z,87462.00
2023-03-31T10:29:11.164Z,87466.00
2023-03-31T10:30:11.134Z,87468.00
2023-03-31T10:31:11.328Z,87470.00
2023-03-31T10:32:11.063Z,87464.00
2023-03-31T10:33:22.092Z,87458.00
2023-03-31T10:34:12.048Z,87462.00
2023-03-31T10:35:11.017Z,87460.00
2023-03-31T10:36:11.048Z,87458.00
2023-03-31T10:37:10.998Z,87448.00
2023-03-31T10:38:10.969Z,87452.00
2023-03-31T10:39:10.945Z,87456.00
2023-03-31T10:40:10.939Z,87464.00
2023-03-31T10:41:10.988Z,87462.00
2023-03-31T10:42:10.894Z,87462.00
2023-03-31T10:43:10.983Z,87460.00
2023-03-31T10:44:12.323Z,87454.00
2023-03-31T10:45:10.890Z,87454.00
2023-03-31T10:46:10.891Z,87441.00
2023-03-31T10:47:10.787Z,87435.00
2023-03-31T10:48:10.777Z,87433.00
2023-03-31T10:49:10.719Z,87423.00
2023-03-31T10:50:10.777Z,87431.00
2023-03-31T10:51:12.819Z,87421.00
2023-03-31T10:52:10.742Z,87429.00
2023-03-31T10:53:10.761Z,87423.00
2023-03-31T10:54:10.705Z,87423.00
2023-03-31T10:55:10.724Z,87427.00
2023-03-31T10:56:10.679Z,87425.00
2023-03-31T10:57:10.705Z,87415.00
2023-03-31T10:58:10.607Z,87414.00
2023-03-31T10:59:10.572Z,87408.00
2023-03-31T11:00:10.542Z,87396.00
2023-03-31T11:01:10.597Z,87396.00
2023-03-31T11:02:10.576Z,87390.00
2023-03-31T11:03:10.568Z,87386.00
2023-03-31T11:04:10.469Z,87380.00
2023-03-31T11:05:10.550Z,87378.00
2023-03-31T11:06:10.412Z,87372.00
2023-03-31T11:07:10.353Z,87376.00
2023-03-31T11:08:10.461Z,87372.00
2023-03-31T11:09:10.319Z,87370.00
2023-03-31T11:10:10.285Z,87372.00
2023-03-31T11:11:10.274Z,87376.00
2023-03-31T11:12:10.221Z,87378.00
2023-03-31T11:13:10.279Z,87388.00
2023-03-31T11:14:10.226Z,87382.00
2023-03-31T11:15:10.160Z,87378.00
2023-03-31T11:16:10.285Z,87380.00
2023-03-31T11:17:10.145Z,87382.00
2023-03-31T11:18:10.184Z,87374.00
2023-03-31T11:19:10.105Z,87370.00
2023-03-31T11:20:10.064Z,87360.00
2023-03-31T11:21:10.052Z,87370.00
2023-03-31T11:22:10.032Z,87362.00
2023-03-31T11:23:09.989Z,87357.00
2023-03-31T11:24:10.047Z,87359.00
2023-03-31T11:25:10.108Z,87364.00
2023-03-31T11:26:10.152Z,87353.00
2023-03-31T11:27:10.160Z,87347.00
2023-03-31T11:28:10.211Z,87353.00
2023-03-31T11:29:10.243Z,87351.00
2023-03-31T11:30:10.317Z,87349.00
2023-03-31T11:31:10.356Z,87351.00
2023-03-31T11:32:10.489Z,87357.00
2023-03-31T11:33:10.707Z,87341.00
2023-03-31T11:34:10.482Z,87339.00
2023-03-31T11:35:10.527Z,87347.00
2023-03-31T11:36:10.673Z,87353.00
2023-03-31T11:37:10.495Z,87349.00
2023-03-31T11:38:10.468Z,87347.00
2023-03-31T11:39:10.470Z,87349.00
2023-03-31T11:40:10.463Z,87345.00
2023-03-31T11:41:10.408Z,87349.00
2023-03-31T11:42:10.402Z,87351.00
2023-03-31T11:43:10.441Z,87357.00
2023-03-31T11:44:10.338Z,87368.00
2023-03-31T11:45:10.377Z,87360.00